Terminal Aerodrome Forecast
Issued by NWS Upton, NY

Home | Current Version | Previous Version | Text Only | Print | Product List | Glossary On
Versions: 1 2 3 4 5 6 7 8 9 10 11 12 13 14 15 16 17 18 19 20 21 22 23 24
000
FTUS41 KOKX 210200 AAA
TAFJFK
TAF AMD
KJFK 210231Z 2103/2206 20010KT P6SM FEW040 SCT150 BKN200
     FM210600 20006KT P6SM SCT040 BKN120
     FM211000 15005KT P6SM -RA BKN040 OVC100
     FM211500 16006KT P6SM -RA BKN035 OVC080
     FM220100 VRB04KT 6SM -RADZ SCT020 OVC030=

USA.gov is the U.S. government's official web portal to all federal, state and local government web resources and services.